Hovedside
METAR-TAF:

METAR-TAF

Lufthavner :

Namsos lufthavn

Namsos, Norge

breddegrad: 64-28N, lengdegrad: 011-35E, høyde over havet: 0 m

Gjeldene værobservasjon

Denne rapporten ble laget for 4 timer og 43 minutter siden, klokken 20:50 UTC
Vind 3 kt fra Øst-nordøst
Temperatur -2°C
Luftfuktighet 93%
Trykk 1013 hPa
Sikt 10 km eller mer
Spredte skyer i en høyde av 1800 ft
Brutte skyer i en høyde av 5000 ft
regnbyger i nærheten

METAR: ENNM 102050Z 06003KT 9999 VCSH SCT018 BKN050 M02/M03 Q1013

Tid: 02:33 (01:33 UTC)


TAF: fraværende

Værobservasjoner og værvarsel for over 4000 flyplasser (METAR- og TAF-rapporter).

Tilgjengelige stasjoner er representert av de røde og gule prikkene på kartet.

Hold musepekeren over prikken for å se navnet på stasjonen.

Klikk så for å se værobservasjoner og -varsler.

For å forandre kartet kan du klikke på den grønne knappen med svart kryss for å zoome inn, på den grønne knappen med strek for å zoome ut, eller på de grønne pilene for å se tilstøtende kart.


METAR-TAF: